createdAt,value
2022-09-11T00:02:28.739Z,18.42
2022-09-11T00:12:30.848Z,21.73
2022-09-11T00:22:32.080Z,24.83
2022-09-11T00:32:33.288Z,27.08
2022-09-11T00:42:34.476Z,29.67
2022-09-11T00:52:36.629Z,27.13
2022-09-11T01:02:38.148Z,27.58
2022-09-11T01:12:44.089Z,27.15
2022-09-11T01:22:45.327Z,24.20
2022-09-11T01:32:59.180Z,22.98
2022-09-11T01:43:06.049Z,24.38
2022-09-11T01:53:07.315Z,25.23
2022-09-11T02:03:22.967Z,21.35
2022-09-11T02:13:27.712Z,19.33
2022-09-11T02:23:29.246Z,24.45
2022-09-11T02:33:39.421Z,16.75
2022-09-11T02:43:42.378Z,21.65
2022-09-11T02:53:55.740Z,22.38
2022-09-11T03:03:56.914Z,20.17
2022-09-11T03:13:58.245Z,21.65
2022-09-11T03:23:59.536Z,25.15
2022-09-11T03:34:00.824Z,27.08
2022-09-11T03:44:02.072Z,28.35
2022-09-11T03:54:03.372Z,28.67
2022-09-11T04:04:04.724Z,30.83
2022-09-11T04:14:06.247Z,27.13
2022-09-11T04:24:09.810Z,26.83
2022-09-11T04:34:11.371Z,26.20
2022-09-11T04:44:12.941Z,27.00
2022-09-11T04:54:15.169Z,27.55
2022-09-11T05:04:16.867Z,29.65
2022-09-11T05:14:18.380Z,29.30
2022-09-11T05:24:20.321Z,27.25
2022-09-11T05:34:22.188Z,30.75
2022-09-11T05:44:23.551Z,30.25
2022-09-11T05:54:25.103Z,32.05
2022-09-11T06:04:28.102Z,35.20
2022-09-11T06:14:29.435Z,39.33
2022-09-11T06:24:30.610Z,41.75
2022-09-11T06:34:31.909Z,36.92
2022-09-11T06:44:33.081Z,35.25
2022-09-11T06:54:34.282Z,35.00
2022-09-11T07:04:35.459Z,33.50
2022-09-11T07:14:38.426Z,29.70
2022-09-11T07:24:39.599Z,30.77
2022-09-11T07:34:40.809Z,28.83
2022-09-11T07:44:42.179Z,39.22
2022-09-11T07:54:43.781Z,39.33
2022-09-11T08:04:45.007Z,41.70
2022-09-11T08:14:46.977Z,38.38
2022-09-11T08:24:48.364Z,28.55
2022-09-11T08:34:49.529Z,31.77
2022-09-11T08:44:52.591Z,29.63
2022-09-11T08:54:54.494Z,23.50
2022-09-11T09:05:15.060Z,22.88
2022-09-11T09:15:19.042Z,23.52
2022-09-11T09:25:22.499Z,20.25
2022-09-11T09:35:26.850Z,24.42
2022-09-11T09:45:34.694Z,22.48
2022-09-11T09:55:35.920Z,23.87
2022-09-11T10:05:40.821Z,24.80
2022-09-11T10:15:42.852Z,25.80
2022-09-11T10:25:47.657Z,16.88
2022-09-11T10:35:49.367Z,12.63
2022-09-11T10:46:04.143Z,19.25
2022-09-11T10:56:05.946Z,21.70
2022-09-11T11:06:10.133Z,23.10
2022-09-11T11:16:14.182Z,23.23
2022-09-11T11:26:18.855Z,19.73
2022-09-11T11:36:40.423Z,20.55
2022-09-11T11:46:43.615Z,20.40
2022-09-11T11:56:46.491Z,19.58
2022-09-11T12:06:47.745Z,18.35
2022-09-11T12:16:49.171Z,17.92
2022-09-11T12:27:16.811Z,17.75
2022-09-11T12:37:28.839Z,15.38
2022-09-11T12:47:34.661Z,15.68
2022-09-11T12:57:36.110Z,16.52
2022-09-11T13:07:45.245Z,12.00
2022-09-11T13:17:46.750Z,9.48
2022-09-11T13:27:55.090Z,9.75
2022-09-11T13:37:57.202Z,9.73
2022-09-11T13:47:59.276Z,11.00
2022-09-11T13:58:01.547Z,10.25
2022-09-11T14:08:24.775Z,9.27
2022-09-11T14:18:37.139Z,9.07
2022-09-11T14:28:43.023Z,8.50
2022-09-11T14:38:44.190Z,8.05
2022-09-11T14:48:45.572Z,8.82
2022-09-11T14:58:46.738Z,7.38
2022-09-11T15:08:47.971Z,9.10
2022-09-11T15:18:49.280Z,9.75
2022-09-11T15:28:51.638Z,8.38
2022-09-11T15:38:54.001Z,9.68
2022-09-11T15:48:55.392Z,8.93
2022-09-11T15:58:57.077Z,9.38
2022-09-11T16:08:58.494Z,7.85
2022-09-11T16:19:01.557Z,13.00
2022-09-11T16:29:05.636Z,11.93
2022-09-11T16:39:07.847Z,10.77
2022-09-11T16:49:09.675Z,11.95
2022-09-11T16:59:11.072Z,11.02
2022-09-11T17:09:12.385Z,12.80
2022-09-11T17:19:13.572Z,10.73
2022-09-11T17:29:14.803Z,13.50
2022-09-11T17:39:15.973Z,12.95
2022-09-11T17:49:17.729Z,13.35
2022-09-11T17:59:18.890Z,13.35
2022-09-11T18:09:20.249Z,13.63
2022-09-11T18:19:21.552Z,13.57
2022-09-11T18:29:22.810Z,14.93
2022-09-11T18:39:24.196Z,14.68
2022-09-11T18:49:25.443Z,15.25
2022-09-11T18:59:26.682Z,14.77
2022-09-11T19:09:29.105Z,15.65
2022-09-11T19:19:30.571Z,15.65
2022-09-11T19:29:32.198Z,14.82
2022-09-11T19:39:33.433Z,16.80
2022-09-11T19:49:34.667Z,16.85
2022-09-11T19:59:35.981Z,15.90
2022-09-11T20:09:38.345Z,17.95
2022-09-11T20:19:42.444Z,17.83
2022-09-11T20:29:43.715Z,20.67
2022-09-11T20:39:44.976Z,18.80
2022-09-11T20:49:46.177Z,18.25
2022-09-11T20:59:47.581Z,18.35
2022-09-11T21:09:48.783Z,18.30
2022-09-11T21:19:53.168Z,18.13
2022-09-11T21:29:56.698Z,18.70
2022-09-11T21:39:57.875Z,19.73
2022-09-11T21:49:59.038Z,18.85
2022-09-11T22:00:00.270Z,18.83
2022-09-11T22:10:02.033Z,17.98
2022-09-11T22:20:03.292Z,19.27
2022-09-11T22:30:05.854Z,18.10
2022-09-11T22:40:07.390Z,19.92
2022-09-11T22:50:08.717Z,17.15
2022-09-11T23:00:10.565Z,16.70
2022-09-11T23:10:12.140Z,17.88
2022-09-11T23:20:13.438Z,16.20
2022-09-11T23:30:14.648Z,16.80
2022-09-11T23:40:15.999Z,16.27
2022-09-11T23:50:17.498Z,16.05
